createdAt,value
2018-02-22T00:00:31.712Z,994.20
2018-02-22T00:01:31.951Z,994.22
2018-02-22T00:02:32.199Z,994.21
2018-02-22T00:03:32.430Z,994.22
2018-02-22T00:04:32.678Z,994.22
2018-02-22T00:05:32.900Z,994.15
2018-02-22T00:06:33.144Z,994.11
2018-02-22T00:07:33.381Z,994.12
2018-02-22T00:08:33.618Z,994.11
2018-02-22T00:09:33.858Z,994.11
2018-02-22T00:10:34.102Z,994.11
2018-02-22T00:11:34.329Z,994.12
2018-02-22T00:12:34.558Z,994.08
2018-02-22T00:13:35.696Z,994.05
2018-02-22T00:14:35.700Z,994.07
2018-02-22T00:15:35.273Z,994.04
2018-02-22T00:16:35.510Z,994.00
2018-02-22T00:17:35.748Z,994.06
2018-02-22T00:18:35.980Z,994.00
2018-02-22T00:19:36.216Z,993.98
2018-02-22T00:20:36.451Z,994.02
2018-02-22T00:21:36.690Z,994.04
2018-02-22T00:22:36.929Z,994.06
2018-02-22T00:23:37.163Z,994.03
2018-02-22T00:24:37.408Z,994.04
2018-02-22T00:25:37.628Z,994.01
2018-02-22T00:26:37.858Z,994.04
2018-02-22T00:27:38.098Z,994.01
2018-02-22T00:28:38.336Z,994.01
2018-02-22T00:29:38.583Z,994.05
2018-02-22T00:30:38.808Z,994.09
2018-02-22T00:31:39.049Z,994.07
2018-02-22T00:32:40.298Z,994.05
2018-02-22T00:33:39.613Z,994.04
2018-02-22T00:34:39.858Z,993.92
2018-02-22T00:35:40.094Z,994.03
2018-02-22T00:36:40.328Z,993.98
2018-02-22T00:37:40.561Z,993.94
2018-02-22T00:38:41.704Z,993.98
2018-02-22T00:39:41.023Z,993.99
2018-02-22T00:40:41.263Z,994.00
2018-02-22T00:41:41.510Z,993.96
2018-02-22T00:42:41.726Z,993.97
2018-02-22T00:43:41.965Z,993.97
2018-02-22T00:44:42.211Z,993.92
2018-02-22T00:45:42.437Z,993.91
2018-02-22T00:46:42.662Z,993.96
2018-02-22T00:47:42.909Z,993.96
2018-02-22T00:48:43.149Z,993.95
2018-02-22T00:49:43.381Z,994.01
2018-02-22T00:50:43.616Z,994.01
2018-02-22T00:51:43.847Z,994.04
2018-02-22T00:52:44.089Z,994.02
2018-02-22T00:53:44.329Z,994.02
2018-02-22T00:54:44.570Z,993.95
2018-02-22T00:55:44.798Z,993.97
2018-02-22T00:56:45.028Z,993.97
2018-02-22T00:57:45.270Z,994.00
2018-02-22T00:58:45.500Z,993.97
2018-02-22T00:59:45.729Z,993.95
2018-02-22T01:00:45.967Z,993.97
2018-02-22T01:01:46.198Z,993.95
2018-02-22T01:02:46.432Z,993.92
2018-02-22T01:03:47.210Z,993.92
2018-02-22T01:04:46.903Z,993.96
2018-02-22T01:05:47.130Z,993.92
2018-02-22T01:06:47.367Z,993.85
2018-02-22T01:07:48.311Z,993.87
2018-02-22T01:08:47.853Z,993.87
2018-02-22T01:09:48.090Z,993.87
2018-02-22T01:10:48.317Z,993.83
2018-02-22T01:11:48.564Z,993.83
2018-02-22T01:12:48.801Z,993.84
2018-02-22T01:13:49.714Z,993.84
2018-02-22T01:14:49.288Z,993.86
2018-02-22T01:15:49.545Z,993.85
2018-02-22T01:16:50.743Z,993.85
2018-02-22T01:17:50.035Z,993.86
2018-02-22T01:18:51.213Z,993.91
2018-02-22T01:19:50.501Z,993.91
2018-02-22T01:20:50.737Z,993.85
2018-02-22T01:21:50.973Z,993.87
2018-02-22T01:22:51.221Z,993.79
2018-02-22T01:23:51.441Z,993.82
2018-02-22T01:24:51.679Z,993.82
2018-02-22T01:25:51.915Z,993.83
2018-02-22T01:26:52.157Z,993.87
2018-02-22T01:27:52.385Z,993.86
2018-02-22T01:28:52.626Z,993.86
2018-02-22T01:29:52.860Z,993.84
2018-02-22T01:30:53.097Z,993.88
2018-02-22T01:31:53.334Z,993.91
2018-02-22T01:32:53.571Z,993.92
2018-02-22T01:33:53.811Z,993.90
2018-02-22T01:34:54.047Z,993.83
2018-02-22T01:35:54.285Z,993.90
2018-02-22T01:36:54.521Z,993.87
2018-02-22T01:37:54.758Z,993.92
2018-02-22T01:38:54.991Z,993.84
2018-02-22T01:39:55.226Z,993.88
2018-02-22T01:40:55.471Z,993.95
2018-02-22T01:41:55.707Z,993.89
2018-02-22T01:42:55.941Z,993.89
2018-02-22T01:43:56.177Z,993.90
2018-02-22T01:44:57.221Z,993.87
2018-02-22T01:45:57.221Z,993.91
2018-02-22T01:46:56.846Z,993.97
2018-02-22T01:47:57.084Z,993.90
2018-02-22T01:48:57.334Z,993.88
2018-02-22T01:49:57.555Z,993.88
2018-02-22T01:50:57.793Z,993.91
2018-02-22T01:51:58.028Z,993.88
2018-02-22T01:52:58.265Z,993.85
2018-02-22T01:53:59.320Z,993.86
2018-02-22T01:54:58.857Z,993.84
2018-02-22T01:55:59.101Z,993.81
2018-02-22T01:56:59.340Z,993.92
2018-02-22T01:58:00.224Z,993.85
2018-02-22T01:58:59.796Z,993.85
2018-02-22T02:00:00.021Z,993.87
2018-02-22T02:01:00.268Z,993.88
2018-02-22T02:02:00.501Z,993.87
2018-02-22T02:03:00.730Z,993.88
2018-02-22T02:04:00.966Z,993.91
2018-02-22T02:05:01.204Z,993.87
2018-02-22T02:06:01.446Z,993.89
2018-02-22T02:07:01.675Z,993.82
2018-02-22T02:08:01.905Z,993.82
2018-02-22T02:09:02.153Z,993.78
2018-02-22T02:10:02.377Z,993.82
2018-02-22T02:11:03.227Z,993.79
2018-02-22T02:12:03.743Z,993.78
2018-02-22T02:13:03.072Z,993.76
2018-02-22T02:14:03.298Z,993.77
2018-02-22T02:15:03.537Z,993.75
2018-02-22T02:16:03.776Z,993.71
2018-02-22T02:17:04.008Z,993.72
2018-02-22T02:18:04.244Z,993.74
2018-02-22T02:19:04.484Z,993.74
2018-02-22T02:20:08.649Z,993.74
2018-02-22T02:21:04.949Z,993.71
2018-02-22T02:22:05.185Z,993.72
2018-02-22T02:23:05.425Z,993.70
2018-02-22T02:24:05.656Z,993.65
2018-02-22T02:25:05.895Z,993.69
2018-02-22T02:26:06.131Z,993.64
2018-02-22T02:27:06.367Z,993.60
2018-02-22T02:28:07.234Z,993.65
2018-02-22T02:29:06.837Z,993.63
2018-02-22T02:30:07.067Z,993.64
2018-02-22T02:31:07.313Z,993.58
2018-02-22T02:32:07.555Z,993.64
2018-02-22T02:33:07.777Z,993.59
2018-02-22T02:34:08.019Z,993.58
2018-02-22T02:35:08.256Z,993.59
2018-02-22T02:36:08.493Z,993.58
2018-02-22T02:37:08.730Z,993.55
2018-02-22T02:38:08.981Z,993.60
2018-02-22T02:39:09.208Z,993.63
2018-02-22T02:40:09.459Z,993.61
2018-02-22T02:43:41.470Z,993.55
2018-02-22T02:44:41.707Z,993.58
2018-02-22T02:45:41.946Z,993.57
2018-02-22T02:46:42.180Z,993.58
2018-02-22T02:47:42.427Z,993.61
2018-02-22T02:48:42.671Z,993.59
2018-02-22T02:49:42.898Z,993.59
2018-02-22T02:50:43.982Z,993.58
2018-02-22T02:51:43.353Z,993.55
2018-02-22T02:52:43.591Z,993.55
2018-02-22T02:53:43.827Z,993.54
2018-02-22T02:54:44.064Z,993.53
2018-02-22T02:55:44.305Z,993.57
2018-02-22T02:56:44.540Z,993.54
2018-02-22T02:57:44.776Z,993.59
2018-02-22T02:58:45.011Z,993.59
2018-02-22T02:59:45.986Z,993.56
2018-02-22T03:00:45.472Z,993.60
2018-02-22T03:01:45.709Z,993.59
2018-02-22T03:02:45.945Z,993.59
2018-02-22T03:03:46.186Z,993.56
2018-02-22T03:04:46.411Z,993.50
2018-02-22T03:05:46.649Z,993.52
2018-02-22T03:06:46.885Z,993.58
2018-02-22T03:07:47.988Z,993.53
2018-02-22T03:08:47.987Z,993.60
2018-02-22T03:09:47.573Z,993.61
2018-02-22T03:10:47.815Z,993.64
2018-02-22T03:11:48.048Z,993.56
2018-02-22T03:12:49.489Z,993.54
2018-02-22T03:13:48.524Z,993.53
2018-02-22T03:14:49.491Z,993.56
2018-02-22T03:15:49.064Z,993.58
2018-02-22T03:16:50.087Z,993.54
2018-02-22T03:17:49.647Z,993.59
2018-02-22T03:18:49.864Z,993.58
2018-02-22T03:19:50.097Z,993.60
2018-02-22T03:20:50.333Z,993.60
2018-02-22T03:21:50.570Z,993.60
2018-02-22T03:22:50.804Z,993.60
2018-02-22T03:23:51.039Z,993.56
2018-02-22T03:24:51.276Z,993.61
2018-02-22T03:25:51.513Z,993.56
2018-02-22T03:26:52.491Z,993.57
2018-02-22T03:27:51.987Z,993.54
2018-02-22T03:28:52.229Z,993.56
2018-02-22T03:29:52.458Z,993.59
2018-02-22T03:30:52.699Z,993.59
2018-02-22T03:31:53.493Z,993.57
2018-02-22T03:32:53.158Z,993.55
2018-02-22T03:33:54.094Z,993.53
2018-02-22T03:34:53.637Z,993.57
2018-02-22T03:35:53.894Z,993.59
2018-02-22T03:36:54.124Z,993.52
2018-02-22T03:37:54.365Z,993.56
2018-02-22T03:38:54.608Z,993.57
2018-02-22T03:39:54.832Z,993.58
2018-02-22T03:40:55.998Z,993.58
2018-02-22T03:41:55.995Z,993.55
2018-02-22T03:42:56.495Z,993.54
2018-02-22T03:43:55.793Z,993.53
2018-02-22T03:44:56.036Z,993.62
2018-02-22T03:45:56.271Z,993.57
2018-02-22T03:46:56.508Z,993.54
2018-02-22T03:47:56.742Z,993.55
2018-02-22T03:48:56.965Z,993.51
2018-02-22T03:49:57.202Z,993.53
2018-02-22T03:50:57.998Z,993.55
2018-02-22T03:51:57.672Z,993.52
2018-02-22T03:52:57.898Z,993.48
2018-02-22T03:53:59.012Z,993.49
2018-02-22T03:54:58.359Z,993.50
2018-02-22T03:55:58.604Z,993.50
2018-02-22T03:56:58.830Z,993.51
2018-02-22T03:58:00.502Z,993.48
2018-02-22T03:58:59.287Z,993.47
2018-02-22T03:59:59.524Z,993.46
2018-02-22T04:00:59.750Z,993.47
2018-02-22T04:01:59.983Z,993.53
2018-02-22T04:03:00.219Z,993.53
2018-02-22T04:04:00.448Z,993.51
2018-02-22T04:05:00.688Z,993.51
2018-02-22T04:06:00.926Z,993.48
2018-02-22T04:07:02.003Z,993.53
2018-02-22T04:08:01.382Z,993.53
2018-02-22T04:09:01.619Z,993.57
2018-02-22T04:10:01.849Z,993.55
2018-02-22T04:11:02.092Z,993.63
2018-02-22T04:12:02.332Z,993.58
2018-02-22T04:13:02.566Z,993.59
2018-02-22T04:14:02.802Z,993.59
2018-02-22T04:15:03.043Z,993.61
2018-02-22T04:16:03.271Z,993.60
2018-02-22T04:17:03.505Z,993.62
2018-02-22T04:18:03.744Z,993.61
2018-02-22T04:19:03.987Z,993.60
2018-02-22T04:20:04.216Z,993.67
2018-02-22T04:21:04.450Z,993.67
2018-02-22T04:22:04.689Z,993.66
2018-02-22T04:23:04.932Z,993.64
2018-02-22T04:24:05.164Z,993.59
2018-02-22T04:25:05.402Z,993.61
2018-02-22T04:26:05.636Z,993.61
2018-02-22T04:27:05.874Z,993.61
2018-02-22T04:28:06.115Z,993.58
2018-02-22T04:29:06.359Z,993.59
2018-02-22T04:30:06.596Z,993.62
2018-02-22T04:31:07.513Z,993.63
2018-02-22T04:32:07.086Z,993.63
2018-02-22T04:33:07.323Z,993.64
2018-02-22T04:34:07.556Z,993.61
2018-02-22T04:35:07.797Z,993.66
2018-02-22T04:36:08.511Z,993.69
2018-02-22T04:37:09.012Z,993.69
2018-02-22T04:38:08.473Z,993.68
2018-02-22T04:39:08.711Z,993.67
2018-02-22T04:40:08.941Z,993.70
2018-02-22T04:41:10.012Z,993.68
2018-02-22T04:42:09.397Z,993.74
2018-02-22T04:43:09.634Z,993.70
2018-02-22T04:44:09.872Z,993.70
2018-02-22T04:45:11.016Z,993.69
2018-02-22T04:46:10.337Z,993.69
2018-02-22T04:47:10.573Z,993.67
2018-02-22T04:48:10.812Z,993.72
2018-02-22T04:49:11.047Z,993.68
2018-02-22T04:50:11.280Z,993.71
2018-02-22T04:51:11.513Z,993.74
2018-02-22T04:52:11.751Z,993.67
2018-02-22T04:53:11.993Z,993.67
2018-02-22T04:54:12.227Z,993.66
2018-02-22T04:55:12.455Z,993.67
2018-02-22T04:56:12.693Z,993.66
2018-02-22T04:57:12.931Z,993.65
2018-02-22T04:58:14.116Z,993.64
2018-02-22T04:59:13.433Z,993.63
2018-02-22T05:00:13.664Z,993.61
2018-02-22T05:01:13.907Z,993.68
2018-02-22T05:02:15.019Z,993.62
2018-02-22T05:03:14.367Z,993.67
2018-02-22T05:04:14.604Z,993.61
2018-02-22T05:05:14.851Z,993.62
2018-02-22T05:06:15.074Z,993.65
2018-02-22T05:07:15.308Z,993.57
2018-02-22T05:08:15.545Z,993.60
2018-02-22T05:09:15.784Z,993.56
2018-02-22T05:10:16.550Z,993.57
2018-02-22T05:11:16.228Z,993.52
2018-02-22T05:12:17.020Z,993.52
2018-02-22T05:13:16.688Z,993.50
2018-02-22T05:14:16.926Z,993.54
2018-02-22T05:15:17.167Z,993.56
2018-02-22T05:16:17.396Z,993.54
2018-02-22T05:17:17.633Z,993.58
2018-02-22T05:18:17.872Z,993.58
2018-02-22T05:19:18.108Z,993.58
2018-02-22T05:20:18.344Z,993.56
2018-02-22T05:21:18.582Z,993.59
2018-02-22T05:22:18.816Z,993.58
2018-02-22T05:23:19.056Z,993.58
2018-02-22T05:24:20.119Z,993.61
2018-02-22T05:25:19.668Z,993.61
2018-02-22T05:26:20.524Z,993.57
2018-02-22T05:27:20.123Z,993.51
2018-02-22T05:28:20.354Z,993.54
2018-02-22T05:29:20.591Z,993.56
2018-02-22T05:30:20.821Z,993.53
2018-02-22T05:31:21.052Z,993.50
2018-02-22T05:32:21.286Z,993.52
2018-02-22T05:33:21.523Z,993.53
2018-02-22T05:34:21.796Z,993.51
2018-02-22T05:35:21.997Z,993.56
2018-02-22T05:36:22.228Z,993.52
2018-02-22T05:37:22.461Z,993.58
2018-02-22T05:38:22.697Z,993.59
2018-02-22T05:39:22.935Z,993.57
2018-02-22T05:40:23.181Z,993.57
2018-02-22T05:41:23.405Z,993.52
2018-02-22T05:42:23.644Z,993.59
2018-02-22T05:43:23.885Z,993.60
2018-02-22T05:44:24.125Z,993.62
2018-02-22T05:45:24.351Z,993.56
2018-02-22T05:46:24.593Z,993.57
2018-02-22T05:47:24.831Z,993.54
2018-02-22T05:48:25.068Z,993.54
2018-02-22T05:49:25.318Z,993.56
2018-02-22T05:50:25.537Z,993.61
2018-02-22T05:51:25.778Z,993.65
2018-02-22T05:52:26.014Z,993.61
2018-02-22T05:53:26.251Z,993.70
2018-02-22T05:54:26.490Z,993.66
2018-02-22T05:55:26.733Z,993.75
2018-02-22T05:56:26.977Z,993.77
2018-02-22T05:59:58.988Z,993.69
2018-02-22T06:00:59.229Z,993.71
2018-02-22T06:01:59.476Z,993.76
2018-02-22T06:02:59.700Z,993.75
2018-02-22T06:04:00.501Z,993.71
2018-02-22T06:05:00.163Z,993.69
2018-02-22T06:06:00.388Z,993.66
2018-02-22T06:07:00.630Z,993.68
2018-02-22T06:08:00.861Z,993.72
2018-02-22T06:09:01.100Z,993.70
2018-02-22T06:10:01.326Z,993.66
2018-02-22T06:11:01.559Z,993.71
2018-02-22T06:12:01.797Z,993.68
2018-02-22T06:13:02.033Z,993.69
2018-02-22T06:14:02.270Z,993.68
2018-02-22T06:15:02.508Z,993.69
2018-02-22T06:16:02.751Z,993.69
2018-02-22T06:17:02.975Z,993.65
2018-02-22T06:18:03.213Z,993.69
2018-02-22T06:19:03.450Z,993.71
2018-02-22T06:20:03.686Z,993.68
2018-02-22T06:21:03.932Z,993.69
2018-02-22T06:22:04.157Z,993.76
2018-02-22T06:23:04.403Z,993.71
2018-02-22T06:24:04.641Z,993.72
2018-02-22T06:25:04.864Z,993.73
2018-02-22T06:26:06.007Z,993.74
2018-02-22T06:27:05.310Z,993.82
2018-02-22T06:28:05.550Z,993.75
2018-02-22T06:29:05.787Z,993.85
2018-02-22T06:30:06.017Z,993.84
2018-02-22T06:31:07.009Z,993.85
2018-02-22T06:32:06.477Z,993.80
2018-02-22T06:33:07.508Z,993.81
2018-02-22T06:34:06.960Z,993.86
2018-02-22T06:35:08.009Z,993.85
2018-02-22T06:36:07.410Z,993.82
2018-02-22T06:37:07.648Z,993.86
2018-02-22T06:38:07.885Z,993.85
2018-02-22T06:39:08.126Z,993.87
2018-02-22T06:40:08.366Z,993.94
2018-02-22T06:41:08.589Z,993.97
2018-02-22T06:42:08.832Z,993.96
2018-02-22T06:43:09.071Z,993.92
2018-02-22T06:44:09.306Z,994.04
2018-02-22T06:45:10.012Z,994.03
2018-02-22T06:46:09.750Z,993.98
2018-02-22T06:47:10.517Z,994.09
2018-02-22T06:48:10.216Z,993.99
2018-02-22T06:49:10.448Z,994.01
2018-02-22T06:50:10.684Z,994.06
2018-02-22T06:51:10.920Z,994.09
2018-02-22T06:52:11.157Z,994.06
2018-02-22T06:56:14.502Z,994.04
2018-02-22T06:57:14.732Z,994.01
2018-02-22T06:58:14.976Z,994.02
2018-02-22T06:59:15.216Z,994.04
2018-02-22T07:00:15.448Z,994.00
2018-02-22T07:01:15.686Z,994.04
2018-02-22T07:02:15.930Z,994.03
2018-02-22T07:03:16.156Z,994.09
2018-02-22T07:04:16.397Z,994.08
2018-02-22T07:05:16.618Z,994.09
2018-02-22T07:06:16.858Z,994.10
2018-02-22T07:07:17.093Z,994.13
2018-02-22T07:08:17.328Z,994.04
2018-02-22T07:09:17.560Z,994.07
2018-02-22T07:10:17.799Z,994.11
2018-02-22T07:11:18.035Z,994.13
2018-02-22T07:12:19.027Z,994.15
2018-02-22T07:13:18.506Z,994.08
2018-02-22T07:14:18.744Z,994.15
2018-02-22T07:15:18.980Z,994.17
2018-02-22T07:16:19.232Z,994.19
2018-02-22T07:17:19.456Z,994.14
2018-02-22T07:18:19.690Z,994.15
2018-02-22T07:19:19.928Z,994.10
2018-02-22T07:20:20.164Z,994.06
2018-02-22T07:21:20.408Z,994.16
2018-02-22T07:22:20.635Z,994.06
2018-02-22T07:23:20.879Z,994.07
2018-02-22T07:24:21.117Z,994.08
2018-02-22T07:25:21.348Z,994.05
2018-02-22T07:26:21.572Z,994.06
2018-02-22T07:27:22.536Z,994.07
2018-02-22T07:28:22.108Z,994.04
2018-02-22T07:29:22.346Z,994.11
2018-02-22T07:30:22.583Z,994.05
2018-02-22T07:31:22.819Z,994.10
2018-02-22T07:32:23.534Z,994.11
2018-02-22T07:33:23.278Z,994.07
2018-02-22T07:34:23.521Z,994.12
2018-02-22T07:35:24.537Z,994.11
2018-02-22T07:36:24.633Z,994.13
2018-02-22T07:37:24.408Z,994.11
2018-02-22T07:38:24.647Z,994.13
2018-02-22T07:39:24.873Z,994.11
2018-02-22T07:40:25.105Z,994.13
2018-02-22T07:41:25.338Z,994.07
2018-02-22T07:42:25.576Z,994.16
2018-02-22T07:43:26.632Z,994.14
2018-02-22T07:44:26.184Z,994.16
2018-02-22T07:45:26.412Z,994.18
2018-02-22T07:46:26.649Z,994.15
2018-02-22T07:47:26.886Z,994.15
2018-02-22T07:48:27.134Z,994.16
2018-02-22T07:49:27.358Z,994.15
2018-02-22T07:50:27.595Z,994.14
2018-02-22T07:51:27.831Z,994.12
2018-02-22T07:52:28.069Z,994.16
2018-02-22T07:53:28.308Z,994.14
2018-02-22T07:54:28.542Z,994.16
2018-02-22T07:55:28.785Z,994.19
2018-02-22T07:56:29.021Z,994.22
2018-02-22T07:57:29.254Z,994.22
2018-02-22T07:58:29.491Z,994.19
2018-02-22T07:59:29.739Z,994.22
2018-02-22T08:00:29.952Z,994.25
2018-02-22T08:01:30.189Z,994.24
2018-02-22T08:02:31.041Z,994.21
2018-02-22T08:03:30.650Z,994.27
2018-02-22T08:04:30.890Z,994.20
2018-02-22T08:05:31.156Z,994.21
2018-02-22T08:06:32.044Z,994.22
2018-02-22T08:07:31.624Z,994.28
2018-02-22T08:08:31.858Z,994.32
2018-02-22T08:09:32.084Z,994.22
2018-02-22T08:10:32.314Z,994.20
2018-02-22T08:11:32.552Z,994.27
2018-02-22T08:12:32.790Z,994.28
2018-02-22T08:13:33.035Z,994.24
2018-02-22T08:14:33.260Z,994.20
2018-02-22T08:15:33.497Z,994.22
2018-02-22T08:16:33.756Z,994.20
2018-02-22T08:17:34.002Z,994.24
2018-02-22T08:18:34.240Z,994.24
2018-02-22T08:19:34.476Z,994.13
2018-02-22T08:20:34.725Z,994.12
2018-02-22T08:21:34.949Z,994.15
2018-02-22T08:22:35.186Z,994.18
2018-02-22T08:23:35.423Z,994.16
2018-02-22T08:24:35.662Z,994.14
2018-02-22T08:25:35.897Z,994.08
2018-02-22T08:26:36.122Z,994.08
2018-02-22T08:27:36.359Z,994.06
2018-02-22T08:28:36.596Z,994.01
2018-02-22T08:29:36.836Z,994.07
2018-02-22T08:30:37.065Z,994.08
2018-02-22T08:31:37.302Z,994.05
2018-02-22T08:32:37.538Z,993.99
2018-02-22T08:33:37.803Z,994.00
2018-02-22T08:34:38.552Z,994.01
2018-02-22T08:35:38.247Z,994.02
2018-02-22T08:36:38.483Z,994.05
2018-02-22T08:37:38.717Z,993.98
2018-02-22T08:38:39.551Z,993.95
2018-02-22T08:39:39.176Z,994.00
2018-02-22T08:40:39.413Z,994.05
2018-02-22T08:41:39.641Z,993.99
2018-02-22T08:42:39.939Z,994.01
2018-02-22T08:43:40.147Z,994.01
2018-02-22T08:44:40.417Z,993.99
2018-02-22T08:45:40.622Z,994.00
2018-02-22T08:46:41.553Z,993.99
2018-02-22T08:47:41.090Z,993.90
2018-02-22T08:48:41.326Z,993.93
2018-02-22T08:49:41.569Z,993.93
2018-02-22T08:50:41.797Z,994.07
2018-02-22T08:51:42.034Z,994.00
2018-02-22T08:52:42.272Z,993.97
2018-02-22T08:53:42.509Z,994.03
2018-02-22T08:54:43.555Z,994.05
2018-02-22T08:55:42.969Z,994.07
2018-02-22T08:56:44.058Z,994.00
2018-02-22T08:57:43.673Z,994.02
2018-02-22T08:58:43.886Z,994.05
2018-02-22T08:59:44.120Z,994.04
2018-02-22T09:00:44.356Z,994.01
2018-02-22T09:01:44.593Z,993.92
2018-02-22T09:02:44.835Z,993.97
2018-02-22T09:03:46.056Z,993.92
2018-02-22T09:04:45.307Z,993.95
2018-02-22T09:05:45.548Z,993.98
2018-02-22T09:06:45.784Z,993.97
2018-02-22T09:07:46.020Z,993.97
2018-02-22T09:08:46.282Z,993.97
2018-02-22T09:09:46.492Z,994.10
2018-02-22T09:10:46.728Z,994.00
2018-02-22T09:11:46.963Z,994.06
2018-02-22T09:12:47.200Z,994.09
2018-02-22T09:13:47.440Z,994.06
2018-02-22T09:14:47.705Z,994.06
2018-02-22T09:15:48.561Z,994.07
2018-02-22T09:16:48.143Z,994.05
2018-02-22T09:17:48.384Z,994.13
2018-02-22T09:18:48.620Z,994.13
2018-02-22T09:19:49.561Z,994.13
2018-02-22T09:20:49.086Z,994.19
2018-02-22T09:21:49.324Z,994.09
2018-02-22T09:22:49.560Z,994.13
2018-02-22T09:23:50.562Z,994.14
2018-02-22T09:24:50.032Z,994.24
2018-02-22T09:25:50.268Z,994.14
2018-02-22T09:26:50.491Z,994.11
2018-02-22T09:27:50.727Z,994.10
2018-02-22T09:28:50.977Z,994.06
2018-02-22T09:29:51.193Z,994.03
2018-02-22T09:30:51.423Z,994.07
2018-02-22T09:31:51.678Z,994.11
2018-02-22T09:32:51.916Z,994.10
2018-02-22T09:33:52.158Z,994.13
2018-02-22T09:34:52.395Z,994.11
2018-02-22T09:35:52.632Z,994.13
2018-02-22T09:36:52.866Z,994.18
2018-02-22T09:37:53.096Z,994.17
2018-02-22T09:38:53.332Z,994.13
2018-02-22T09:39:53.572Z,994.18
2018-02-22T09:40:53.814Z,994.14
2018-02-22T09:41:54.323Z,994.13
2018-02-22T09:42:54.273Z,994.16
2018-02-22T09:43:54.509Z,994.12
2018-02-22T09:44:54.737Z,994.16
2018-02-22T09:45:54.976Z,994.16
2018-02-22T09:46:55.208Z,994.23
2018-02-22T09:47:55.456Z,994.16
2018-02-22T09:48:56.568Z,994.18
2018-02-22T09:49:55.928Z,994.25
2018-02-22T09:50:56.163Z,994.20
2018-02-22T09:51:56.401Z,994.22
2018-02-22T09:52:56.647Z,994.19
2018-02-22T09:53:57.570Z,994.20
2018-02-22T09:54:57.101Z,994.21
2018-02-22T09:55:57.325Z,994.16
2018-02-22T09:56:57.573Z,994.20
2018-02-22T09:57:57.814Z,994.20
2018-02-22T09:58:58.582Z,994.28
2018-02-22T09:59:58.272Z,994.19
2018-02-22T10:00:58.511Z,994.21
2018-02-22T10:01:58.752Z,994.20
2018-02-22T10:02:58.983Z,994.19
2018-02-22T10:06:31.005Z,994.20
2018-02-22T10:07:31.239Z,994.25
2018-02-22T10:08:31.479Z,994.21
2018-02-22T10:09:31.714Z,994.19
2018-02-22T10:10:31.954Z,994.17
2018-02-22T10:11:32.189Z,994.14
2018-02-22T10:12:32.419Z,994.18
2018-02-22T10:13:32.658Z,994.20
2018-02-22T10:14:32.901Z,994.19
2018-02-22T10:15:33.148Z,994.23
2018-02-22T10:16:33.715Z,994.19
2018-02-22T10:17:33.693Z,994.24
2018-02-22T10:18:34.060Z,994.28
2018-02-22T10:19:34.242Z,994.18
2018-02-22T10:20:34.313Z,994.21
2018-02-22T10:21:34.543Z,994.23
2018-02-22T10:22:35.515Z,994.10
2018-02-22T10:23:35.089Z,994.19
2018-02-22T10:24:35.322Z,994.25
2018-02-22T10:25:35.561Z,994.17
2018-02-22T10:26:36.514Z,994.22
2018-02-22T10:27:36.021Z,994.18
2018-02-22T10:28:36.278Z,994.17
2018-02-22T10:29:36.498Z,994.21
2018-02-22T10:30:36.737Z,994.17
2018-02-22T10:31:36.969Z,994.10
2018-02-22T10:32:37.202Z,994.06
2018-02-22T10:33:37.439Z,994.03
2018-02-22T10:34:37.684Z,994.01
2018-02-22T10:35:37.916Z,994.04
2018-02-22T10:36:38.153Z,994.05
2018-02-22T10:37:38.389Z,994.13
2018-02-22T10:38:38.634Z,993.99
2018-02-22T10:39:38.861Z,994.08
2018-02-22T10:40:39.100Z,994.09
2018-02-22T10:41:39.337Z,994.07
2018-02-22T10:42:39.592Z,994.04
2018-02-22T10:43:39.812Z,993.97
2018-02-22T10:44:40.047Z,993.97
2018-02-22T10:45:40.283Z,994.01
2018-02-22T10:46:40.694Z,994.00
2018-02-22T10:47:41.115Z,994.02
2018-02-22T10:48:40.992Z,994.03
2018-02-22T10:49:41.253Z,993.99
2018-02-22T10:50:41.666Z,994.11
2018-02-22T10:51:41.702Z,993.96
2018-02-22T10:52:42.521Z,993.94
2018-02-22T10:53:42.158Z,994.07
2018-02-22T10:54:42.402Z,994.02
2018-02-22T10:55:42.647Z,994.03
2018-02-22T10:56:42.871Z,993.95
2018-02-22T10:57:43.113Z,994.07
2018-02-22T10:58:43.380Z,994.08
2018-02-22T10:59:43.622Z,993.97
2018-02-22T11:00:43.867Z,994.02
2018-02-22T11:01:44.104Z,993.90
2018-02-22T11:02:44.342Z,994.01
2018-02-22T11:03:44.584Z,993.97
2018-02-22T11:04:44.818Z,994.01
2018-02-22T11:05:45.062Z,993.86
2018-02-22T11:06:45.286Z,993.99
2018-02-22T11:07:46.024Z,993.90
2018-02-22T11:08:45.753Z,993.88
2018-02-22T11:09:45.994Z,994.00
2018-02-22T11:10:46.231Z,993.84
2018-02-22T11:11:46.473Z,993.87
2018-02-22T11:12:46.702Z,993.89
2018-02-22T11:13:46.938Z,993.73
2018-02-22T11:14:47.178Z,993.74
2018-02-22T11:15:47.415Z,993.79
2018-02-22T11:16:47.649Z,993.80
2018-02-22T11:17:47.885Z,993.79
2018-02-22T11:18:48.128Z,993.82
2018-02-22T11:19:48.392Z,993.80
2018-02-22T11:20:48.599Z,993.86
2018-02-22T11:21:48.837Z,993.83
2018-02-22T11:22:49.073Z,993.77
2018-02-22T11:23:49.310Z,993.75
2018-02-22T11:24:49.549Z,993.77
2018-02-22T11:25:49.785Z,993.72
2018-02-22T11:26:50.023Z,993.79
2018-02-22T11:27:50.260Z,993.75
2018-02-22T11:28:51.031Z,993.68
2018-02-22T11:29:50.719Z,993.70
2018-02-22T11:30:50.966Z,993.76
2018-02-22T11:31:51.193Z,993.74
2018-02-22T11:32:52.031Z,993.73
2018-02-22T11:33:51.663Z,993.73
2018-02-22T11:34:51.894Z,993.74
2018-02-22T11:35:53.134Z,993.76
2018-02-22T11:36:52.450Z,993.74
2018-02-22T11:37:52.682Z,993.74
2018-02-22T11:38:52.919Z,993.78
2018-02-22T11:39:54.044Z,993.91
2018-02-22T11:40:53.376Z,993.77
2018-02-22T11:41:53.622Z,993.75
2018-02-22T11:42:53.842Z,993.79
2018-02-22T11:43:54.079Z,993.90
2018-02-22T11:44:54.316Z,993.83
2018-02-22T11:45:54.562Z,993.79
2018-02-22T11:46:54.800Z,993.81
2018-02-22T11:47:55.032Z,993.77
2018-02-22T11:48:55.263Z,993.70
2018-02-22T11:49:55.497Z,993.74
2018-02-22T11:50:55.733Z,993.69
2018-02-22T11:51:55.971Z,993.65
2018-02-22T11:52:56.208Z,993.71
2018-02-22T11:53:56.445Z,993.72
2018-02-22T11:54:56.669Z,993.65
2018-02-22T11:55:56.902Z,993.52
2018-02-22T11:56:57.131Z,993.60
2018-02-22T11:57:58.039Z,993.55
2018-02-22T11:58:57.586Z,993.60
2018-02-22T11:59:57.827Z,993.60
2018-02-22T12:00:58.091Z,993.57
2018-02-22T12:01:58.341Z,993.59
2018-02-22T12:02:58.577Z,993.46
2018-02-22T12:03:58.815Z,993.51
2018-02-22T12:04:59.052Z,993.44
2018-02-22T12:05:59.290Z,993.38
2018-02-22T12:06:59.527Z,993.42
2018-02-22T12:07:59.761Z,993.47
2018-02-22T12:09:00.001Z,993.50
2018-02-22T12:10:00.237Z,993.48
2018-02-22T12:11:00.474Z,993.43
2018-02-22T12:12:00.708Z,993.40
2018-02-22T12:13:01.546Z,993.45
2018-02-22T12:14:01.165Z,993.42
2018-02-22T12:15:01.402Z,993.52
2018-02-22T12:16:02.544Z,993.54
2018-02-22T12:17:01.871Z,993.55
2018-02-22T12:18:02.097Z,993.62
2018-02-22T12:19:02.346Z,993.54
2018-02-22T12:20:02.584Z,993.51
2018-02-22T12:21:02.824Z,993.53
2018-02-22T12:22:03.545Z,993.49
2018-02-22T12:23:04.046Z,993.48
2018-02-22T12:24:04.047Z,993.48
2018-02-22T12:25:03.718Z,993.51
2018-02-22T12:26:03.958Z,993.44
2018-02-22T12:27:04.195Z,993.43
2018-02-22T12:28:04.417Z,993.42
2018-02-22T12:29:04.652Z,993.41
2018-02-22T12:30:04.879Z,993.46
2018-02-22T12:31:05.122Z,993.39
2018-02-22T12:32:05.354Z,993.39
2018-02-22T12:33:05.590Z,993.35
2018-02-22T12:34:05.843Z,993.37
2018-02-22T12:35:06.062Z,993.43
2018-02-22T12:36:06.313Z,993.36
2018-02-22T12:37:06.528Z,993.31
2018-02-22T12:38:06.765Z,993.45
2018-02-22T12:39:07.016Z,993.36
2018-02-22T12:40:08.150Z,993.40
2018-02-22T12:41:07.476Z,993.40
2018-02-22T12:42:07.695Z,993.44